CheckWX is a tool to help pilots better visualize weather data.  It is not intended as a substitute for an official pre-flight weather briefing.

18:58:09 UTC

EGJB METAR
Guernsey Airport
Saint Peter Port, Guernsey
Current

38 mins ago

EGJB 171820Z 21017KT 9999 FEW018CB SCT022 14/09 Q1004
Observed
Oct-17 @ 18:20 UTC
Wind
  • 210° at 17 KTS
Visibility
10,000+ meters
Flight Rules
VFR
Cloud Levels
  • Few at 1,800' AGL
  • Scattered at 2,200' AGL
Temperature
14°C / 57°F
Dewpoint
C / 48°F
Humidity
72%
Altimeter
29.65" Hg
Pressure
1003.92 hPa
Previous

1 hour ago

EGJB 171750Z 22017KT 9999 VCSH FEW018 SCT027 14/09 Q1004
Observed
Oct-17 @ 17:50 UTC
Wind
  • 220° at 17 KTS
Visibility
10,000+ meters
Flight Rules
VFR
Cloud Levels
  • Few at 1,800' AGL
  • Scattered at 2,700' AGL
Temperature
14°C / 57°F
Dewpoint
C / 48°F
Humidity
72%
Altimeter
29.65" Hg
Pressure
1003.92 hPa
Previous

2 hours ago

EGJB 171720Z 24017KT 9999 VCSH FEW018 SCT027 14/10 Q1005
Observed
Oct-17 @ 17:20 UTC
Wind
  • 240° at 17 KTS
Visibility
10,000+ meters
Flight Rules
VFR
Cloud Levels
  • Few at 1,800' AGL
  • Scattered at 2,700' AGL
Temperature
14°C / 57°F
Dewpoint
10°C / 50°F
Humidity
77%
Altimeter
29.68" Hg
Pressure
1004.92 hPa